sensor_id;sensor_type;location;lat;lon;timestamp;pressure;altitude;pressure_sealevel;temperature;humidity
14393;BME280;7281;42.678;23.372;2022-07-01T00:02:04;95042.66;;;27.26;38.88
14393;BME280;7281;42.678;23.372;2022-07-01T00:04:31;95044.69;;;27.14;39.05
14393;BME280;7281;42.678;23.372;2022-07-01T00:07:33;95042.66;;;27.07;39.31
14393;BME280;7281;42.678;23.372;2022-07-01T00:10:00;95044.59;;;27.48;38.60
14393;BME280;7281;42.678;23.372;2022-07-01T00:12:27;95056.19;;;27.52;38.80
14393;BME280;7281;42.678;23.372;2022-07-01T00:14:54;95059.69;;;27.75;38.62
14393;BME280;7281;42.678;23.372;2022-07-01T00:17:21;95043.84;;;27.48;38.66
14393;BME280;7281;42.678;23.372;2022-07-01T00:19:48;95058.84;;;27.30;38.81
14393;BME280;7281;42.678;23.372;2022-07-01T00:22:17;95053.31;;;27.42;38.83
14393;BME280;7281;42.678;23.372;2022-07-01T00:24:44;95063.78;;;27.47;38.86
14393;BME280;7281;42.678;23.372;2022-07-01T00:27:12;95073.38;;;27.44;38.89
14393;BME280;7281;42.678;23.372;2022-07-01T00:29:42;95070.47;;;27.34;38.78
14393;BME280;7281;42.678;23.372;2022-07-01T00:32:09;95061.81;;;27.25;38.96
14393;BME280;7281;42.678;23.372;2022-07-01T00:34:36;95060.69;;;27.45;38.69
14393;BME280;7281;42.678;23.372;2022-07-01T00:37:03;95059.84;;;27.41;38.61
14393;BME280;7281;42.678;23.372;2022-07-01T00:39:30;95066.47;;;27.47;38.82
14393;BME280;7281;42.678;23.372;2022-07-01T00:42:03;95066.59;;;27.54;38.87
14393;BME280;7281;42.678;23.372;2022-07-01T00:44:31;95067.09;;;27.37;38.95
14393;BME280;7281;42.678;23.372;2022-07-01T00:47:00;95070.75;;;27.48;38.97
14393;BME280;7281;42.678;23.372;2022-07-01T00:49:28;95072.72;;;27.51;39.08
14393;BME280;7281;42.678;23.372;2022-07-01T00:51:56;95062.66;;;27.48;38.91
14393;BME280;7281;42.678;23.372;2022-07-01T00:54:25;95075.34;;;27.47;38.61
14393;BME280;7281;42.678;23.372;2022-07-01T00:56:54;95064.03;;;27.38;39.16
14393;BME280;7281;42.678;23.372;2022-07-01T00:59:22;95072.59;;;27.44;38.69
14393;BME280;7281;42.678;23.372;2022-07-01T01:01:49;95067.22;;;27.44;39.04
14393;BME280;7281;42.678;23.372;2022-07-01T01:04:16;95076.00;;;27.02;39.69
14393;BME280;7281;42.678;23.372;2022-07-01T01:06:43;95071.34;;;26.99;39.57
14393;BME280;7281;42.678;23.372;2022-07-01T01:09:10;95074.72;;;27.16;39.89
14393;BME280;7281;42.678;23.372;2022-07-01T01:11:37;95064.50;;;27.25;39.41
14393;BME280;7281;42.678;23.372;2022-07-01T01:14:04;95059.59;;;27.30;39.28
14393;BME280;7281;42.678;23.372;2022-07-01T01:16:31;95074.44;;;27.21;39.37
14393;BME280;7281;42.678;23.372;2022-07-01T01:19:04;95067.91;;;27.22;39.29
14393;BME280;7281;42.678;23.372;2022-07-01T01:21:32;95077.50;;;27.00;39.54
14393;BME280;7281;42.678;23.372;2022-07-01T01:23:59;95058.31;;;27.01;39.61
14393;BME280;7281;42.678;23.372;2022-07-01T01:26:26;95053.91;;;27.13;39.34
14393;BME280;7281;42.678;23.372;2022-07-01T01:28:53;95055.53;;;27.17;39.26
14393;BME280;7281;42.678;23.372;2022-07-01T01:31:28;95065.34;;;27.29;39.30
14393;BME280;7281;42.678;23.372;2022-07-01T01:33:57;95073.59;;;27.36;39.14
14393;BME280;7281;42.678;23.372;2022-07-01T01:36:24;95079.59;;;27.29;38.89
14393;BME280;7281;42.678;23.372;2022-07-01T01:38:50;95073.59;;;26.97;38.84
14393;BME280;7281;42.678;23.372;2022-07-01T01:41:17;95068.34;;;27.04;38.88
14393;BME280;7281;42.678;23.372;2022-07-01T01:43:44;95077.56;;;27.03;38.98
14393;BME280;7281;42.678;23.372;2022-07-01T01:46:11;95082.66;;;27.09;39.48
14393;BME280;7281;42.678;23.372;2022-07-01T01:48:38;95089.94;;;27.08;39.90
14393;BME280;7281;42.678;23.372;2022-07-01T01:51:05;95073.03;;;27.08;39.88
14393;BME280;7281;42.678;23.372;2022-07-01T01:53:31;95069.78;;;26.98;39.84
14393;BME280;7281;42.678;23.372;2022-07-01T01:55:58;95075.84;;;27.15;39.76
14393;BME280;7281;42.678;23.372;2022-07-01T01:58:25;95069.63;;;26.72;39.98
14393;BME280;7281;42.678;23.372;2022-07-01T02:00:52;95064.16;;;26.88;39.80
14393;BME280;7281;42.678;23.372;2022-07-01T02:03:19;95077.44;;;26.96;39.57
14393;BME280;7281;42.678;23.372;2022-07-01T02:05:46;95083.09;;;26.91;39.60
14393;BME280;7281;42.678;23.372;2022-07-01T02:08:13;95078.31;;;26.31;40.74
14393;BME280;7281;42.678;23.372;2022-07-01T02:10:40;95082.19;;;26.34;40.89
14393;BME280;7281;42.678;23.372;2022-07-01T02:13:07;95091.59;;;26.09;41.49
14393;BME280;7281;42.678;23.372;2022-07-01T02:15:34;95093.88;;;26.41;41.24
14393;BME280;7281;42.678;23.372;2022-07-01T02:18:00;95099.91;;;26.69;40.75
14393;BME280;7281;42.678;23.372;2022-07-01T02:20:27;95099.50;;;26.86;40.70
14393;BME280;7281;42.678;23.372;2022-07-01T02:22:54;95094.53;;;26.88;40.17
14393;BME280;7281;42.678;23.372;2022-07-01T02:25:21;95100.75;;;26.73;40.39
14393;BME280;7281;42.678;23.372;2022-07-01T02:27:48;95085.06;;;26.60;40.71
14393;BME280;7281;42.678;23.372;2022-07-01T02:30:15;95109.09;;;26.68;41.05
14393;BME280;7281;42.678;23.372;2022-07-01T02:32:42;95095.03;;;26.59;41.30
14393;BME280;7281;42.678;23.372;2022-07-01T02:35:09;95103.72;;;26.68;41.38
14393;BME280;7281;42.678;23.372;2022-07-01T02:37:37;95107.69;;;26.74;41.20
14393;BME280;7281;42.678;23.372;2022-07-01T02:40:04;95112.91;;;26.67;41.19
14393;BME280;7281;42.678;23.372;2022-07-01T02:42:32;95112.56;;;26.53;41.54
14393;BME280;7281;42.678;23.372;2022-07-01T02:45:03;95127.84;;;26.49;41.56
14393;BME280;7281;42.678;23.372;2022-07-01T02:47:38;95125.69;;;26.55;41.89
14393;BME280;7281;42.678;23.372;2022-07-01T02:50:10;95119.00;;;26.33;42.30
14393;BME280;7281;42.678;23.372;2022-07-01T02:52:39;95107.44;;;26.14;42.88
14393;BME280;7281;42.678;23.372;2022-07-01T02:55:08;95125.66;;;26.20;43.06
14393;BME280;7281;42.678;23.372;2022-07-01T02:57:36;95131.09;;;26.08;43.21
14393;BME280;7281;42.678;23.372;2022-07-01T03:00:05;95128.13;;;26.13;43.22
14393;BME280;7281;42.678;23.372;2022-07-01T03:02:32;95128.84;;;26.26;42.73
14393;BME280;7281;42.678;23.372;2022-07-01T03:05:00;95130.59;;;26.18;42.89
14393;BME280;7281;42.678;23.372;2022-07-01T03:07:27;95139.69;;;26.29;42.75
14393;BME280;7281;42.678;23.372;2022-07-01T03:09:54;95147.91;;;26.21;43.34
14393;BME280;7281;42.678;23.372;2022-07-01T03:12:21;95143.44;;;25.97;44.10
14393;BME280;7281;42.678;23.372;2022-07-01T03:15:12;95163.69;;;25.79;44.54
14393;BME280;7281;42.678;23.372;2022-07-01T03:17:41;95153.22;;;25.74;44.46
14393;BME280;7281;42.678;23.372;2022-07-01T03:20:10;95158.59;;;25.74;44.30
14393;BME280;7281;42.678;23.372;2022-07-01T03:22:38;95146.44;;;25.49;44.61
14393;BME280;7281;42.678;23.372;2022-07-01T03:25:06;95148.50;;;25.55;44.63
14393;BME280;7281;42.678;23.372;2022-07-01T03:27:33;95144.13;;;25.63;45.02
14393;BME280;7281;42.678;23.372;2022-07-01T03:30:01;95147.41;;;25.72;44.45
14393;BME280;7281;42.678;23.372;2022-07-01T03:32:28;95153.03;;;25.67;44.66
14393;BME280;7281;42.678;23.372;2022-07-01T03:34:54;95150.84;;;25.57;44.37
14393;BME280;7281;42.678;23.372;2022-07-01T03:37:22;95151.97;;;25.56;45.14
14393;BME280;7281;42.678;23.372;2022-07-01T03:39:50;95156.06;;;25.65;45.67
14393;BME280;7281;42.678;23.372;2022-07-01T03:42:17;95151.53;;;25.54;45.53
14393;BME280;7281;42.678;23.372;2022-07-01T03:44:44;95160.84;;;25.44;45.97
14393;BME280;7281;42.678;23.372;2022-07-01T03:47:11;95147.16;;;25.61;45.76
14393;BME280;7281;42.678;23.372;2022-07-01T03:49:38;95154.97;;;25.82;45.38
14393;BME280;7281;42.678;23.372;2022-07-01T03:52:05;95158.50;;;25.86;45.72
14393;BME280;7281;42.678;23.372;2022-07-01T03:54:32;95161.47;;;25.81;45.78
14393;BME280;7281;42.678;23.372;2022-07-01T03:59:28;95157.13;;;25.92;45.79
14393;BME280;7281;42.678;23.372;2022-07-01T04:01:56;95160.44;;;26.01;45.87
14393;BME280;7281;42.678;23.372;2022-07-01T04:04:24;95158.88;;;26.00;45.92
14393;BME280;7281;42.678;23.372;2022-07-01T04:06:53;95160.75;;;25.84;46.02
14393;BME280;7281;42.678;23.372;2022-07-01T04:09:20;95161.53;;;25.84;46.67
14393;BME280;7281;42.678;23.372;2022-07-01T04:11:48;95168.81;;;25.41;46.23
14393;BME280;7281;42.678;23.372;2022-07-01T04:14:15;95170.47;;;25.73;46.37
14393;BME280;7281;42.678;23.372;2022-07-01T04:16:44;95170.91;;;25.90;46.38
14393;BME280;7281;42.678;23.372;2022-07-01T04:19:11;95174.56;;;25.98;46.06
14393;BME280;7281;42.678;23.372;2022-07-01T04:21:40;95176.91;;;25.99;46.10
14393;BME280;7281;42.678;23.372;2022-07-01T04:24:25;95161.06;;;26.10;45.68
14393;BME280;7281;42.678;23.372;2022-07-01T04:26:53;95173.28;;;26.23;45.45
14393;BME280;7281;42.678;23.372;2022-07-01T04:29:20;95168.97;;;26.34;45.38
14393;BME280;7281;42.678;23.372;2022-07-01T04:31:47;95173.47;;;26.30;45.51
14393;BME280;7281;42.678;23.372;2022-07-01T04:34:14;95170.59;;;26.39;44.73
14393;BME280;7281;42.678;23.372;2022-07-01T04:36:41;95175.00;;;26.47;45.05
14393;BME280;7281;42.678;23.372;2022-07-01T04:39:08;95171.97;;;26.48;45.58
14393;BME280;7281;42.678;23.372;2022-07-01T04:41:35;95177.94;;;26.57;45.09
14393;BME280;7281;42.678;23.372;2022-07-01T04:44:20;95176.03;;;25.95;46.30
14393;BME280;7281;42.678;23.372;2022-07-01T04:46:47;95179.81;;;25.79;46.25
14393;BME280;7281;42.678;23.372;2022-07-01T04:49:14;95168.78;;;25.13;48.53
14393;BME280;7281;42.678;23.372;2022-07-01T04:51:41;95192.16;;;25.68;47.55
14393;BME280;7281;42.678;23.372;2022-07-01T04:54:08;95170.81;;;25.87;47.29
14393;BME280;7281;42.678;23.372;2022-07-01T04:56:36;95176.75;;;26.08;46.93
14393;BME280;7281;42.678;23.372;2022-07-01T04:59:11;95179.50;;;25.96;46.72
14393;BME280;7281;42.678;23.372;2022-07-01T05:01:39;95172.81;;;25.90;47.67
14393;BME280;7281;42.678;23.372;2022-07-01T05:04:06;95181.63;;;26.18;47.00
14393;BME280;7281;42.678;23.372;2022-07-01T05:06:33;95178.25;;;25.78;47.98
14393;BME280;7281;42.678;23.372;2022-07-01T05:09:00;95165.81;;;26.01;47.00
14393;BME280;7281;42.678;23.372;2022-07-01T05:11:27;95162.19;;;26.25;46.37
14393;BME280;7281;42.678;23.372;2022-07-01T05:13:54;95160.22;;;26.22;46.44
14393;BME280;7281;42.678;23.372;2022-07-01T05:16:21;95174.34;;;26.34;46.00
14393;BME280;7281;42.678;23.372;2022-07-01T05:18:48;95180.91;;;26.21;46.62
14393;BME280;7281;42.678;23.372;2022-07-01T05:21:33;95182.19;;;25.96;48.05
14393;BME280;7281;42.678;23.372;2022-07-01T05:24:19;95181.34;;;26.23;46.75
14393;BME280;7281;42.678;23.372;2022-07-01T05:26:46;95178.72;;;25.95;47.89
14393;BME280;7281;42.678;23.372;2022-07-01T05:29:12;95182.56;;;25.67;47.96
14393;BME280;7281;42.678;23.372;2022-07-01T05:31:39;95180.03;;;26.17;47.35
14393;BME280;7281;42.678;23.372;2022-07-01T05:34:07;95180.41;;;26.31;47.75
14393;BME280;7281;42.678;23.372;2022-07-01T05:36:33;95174.31;;;26.50;46.76
14393;BME280;7281;42.678;23.372;2022-07-01T05:39:01;95172.41;;;26.19;47.14
14393;BME280;7281;42.678;23.372;2022-07-01T05:41:28;95174.06;;;26.08;47.88
14393;BME280;7281;42.678;23.372;2022-07-01T05:43:55;95170.84;;;26.34;47.18
14393;BME280;7281;42.678;23.372;2022-07-01T05:46:22;95167.56;;;26.40;47.57
14393;BME280;7281;42.678;23.372;2022-07-01T05:48:50;95172.56;;;26.57;47.96
14393;BME280;7281;42.678;23.372;2022-07-01T05:51:16;95171.34;;;26.70;47.16
14393;BME280;7281;42.678;23.372;2022-07-01T05:53:43;95177.44;;;27.02;45.68
14393;BME280;7281;42.678;23.372;2022-07-01T05:56:11;95171.09;;;27.29;44.31
14393;BME280;7281;42.678;23.372;2022-07-01T05:58:37;95169.91;;;27.46;44.16
14393;BME280;7281;42.678;23.372;2022-07-01T06:01:05;95174.69;;;27.18;45.36
14393;BME280;7281;42.678;23.372;2022-07-01T06:03:36;95171.84;;;26.91;45.93
14393;BME280;7281;42.678;23.372;2022-07-01T06:06:03;95168.91;;;26.65;46.88
14393;BME280;7281;42.678;23.372;2022-07-01T06:08:30;95167.78;;;26.82;46.77
14393;BME280;7281;42.678;23.372;2022-07-01T06:10:58;95173.28;;;27.24;45.21
14393;BME280;7281;42.678;23.372;2022-07-01T06:13:24;95174.78;;;27.59;44.55
14393;BME280;7281;42.678;23.372;2022-07-01T06:15:51;95166.66;;;27.37;44.57
14393;BME280;7281;42.678;23.372;2022-07-01T06:18:19;95173.47;;;26.96;46.43
14393;BME280;7281;42.678;23.372;2022-07-01T06:20:45;95182.50;;;26.88;46.42
14393;BME280;7281;42.678;23.372;2022-07-01T06:23:12;95173.88;;;27.33;44.23
14393;BME280;7281;42.678;23.372;2022-07-01T06:25:39;95181.22;;;26.66;45.69
14393;BME280;7281;42.678;23.372;2022-07-01T06:28:05;95188.81;;;26.95;46.09
14393;BME280;7281;42.678;23.372;2022-07-01T06:30:32;95188.28;;;27.63;43.65
14393;BME280;7281;42.678;23.372;2022-07-01T06:32:59;95190.69;;;28.06;42.25
14393;BME280;7281;42.678;23.372;2022-07-01T06:35:26;95178.72;;;27.84;41.65
14393;BME280;7281;42.678;23.372;2022-07-01T06:37:52;95154.34;;;27.77;41.89
14393;BME280;7281;42.678;23.372;2022-07-01T06:40:24;95180.38;;;27.32;44.57
14393;BME280;7281;42.678;23.372;2022-07-01T06:42:51;95183.66;;;27.41;43.91
14393;BME280;7281;42.678;23.372;2022-07-01T06:45:19;95179.59;;;27.69;43.66
14393;BME280;7281;42.678;23.372;2022-07-01T06:47:46;95176.06;;;28.07;42.94
14393;BME280;7281;42.678;23.372;2022-07-01T06:50:13;95179.59;;;27.92;42.58
14393;BME280;7281;42.678;23.372;2022-07-01T06:52:39;95182.78;;;28.17;42.56
14393;BME280;7281;42.678;23.372;2022-07-01T06:55:06;95180.31;;;28.31;42.46
14393;BME280;7281;42.678;23.372;2022-07-01T06:57:33;95187.69;;;27.92;43.16
14393;BME280;7281;42.678;23.372;2022-07-01T07:00:00;95174.28;;;27.73;44.80
14393;BME280;7281;42.678;23.372;2022-07-01T07:02:27;95174.84;;;28.50;42.50
14393;BME280;7281;42.678;23.372;2022-07-01T07:04:55;95179.59;;;28.56;40.99
14393;BME280;7281;42.678;23.372;2022-07-01T07:07:28;95167.88;;;28.71;40.53
14393;BME280;7281;42.678;23.372;2022-07-01T07:09:55;95176.81;;;28.75;40.71
14393;BME280;7281;42.678;23.372;2022-07-01T07:12:24;95181.88;;;28.54;40.21
14393;BME280;7281;42.678;23.372;2022-07-01T07:14:51;95172.13;;;28.72;41.16
14393;BME280;7281;42.678;23.372;2022-07-01T07:17:18;95172.53;;;29.01;41.75
14393;BME280;7281;42.678;23.372;2022-07-01T07:19:44;95180.75;;;29.37;40.23
14393;BME280;7281;42.678;23.372;2022-07-01T07:22:11;95184.84;;;29.28;39.98
14393;BME280;7281;42.678;23.372;2022-07-01T07:24:38;95175.69;;;28.80;41.68
14393;BME280;7281;42.678;23.372;2022-07-01T07:27:06;95179.13;;;28.77;41.13
14393;BME280;7281;42.678;23.372;2022-07-01T07:29:33;95191.50;;;29.34;39.38
14393;BME280;7281;42.678;23.372;2022-07-01T07:32:00;95183.72;;;29.29;38.37
14393;BME280;7281;42.678;23.372;2022-07-01T07:34:26;95159.81;;;29.31;39.46
14393;BME280;7281;42.678;23.372;2022-07-01T07:36:55;95173.13;;;29.46;39.25
14393;BME280;7281;42.678;23.372;2022-07-01T07:39:22;95171.03;;;29.66;38.76
14393;BME280;7281;42.678;23.372;2022-07-01T07:41:49;95169.06;;;29.30;39.10
14393;BME280;7281;42.678;23.372;2022-07-01T07:44:16;95166.56;;;29.77;37.63
14393;BME280;7281;42.678;23.372;2022-07-01T07:46:43;95164.09;;;29.65;37.54
14393;BME280;7281;42.678;23.372;2022-07-01T07:49:12;95170.41;;;29.76;40.56
14393;BME280;7281;42.678;23.372;2022-07-01T07:51:38;95161.09;;;29.70;40.53
14393;BME280;7281;42.678;23.372;2022-07-01T07:54:05;95160.00;;;29.45;40.49
14393;BME280;7281;42.678;23.372;2022-07-01T07:56:32;95159.25;;;30.21;39.19
14393;BME280;7281;42.678;23.372;2022-07-01T07:58:59;95156.88;;;30.13;39.09
14393;BME280;7281;42.678;23.372;2022-07-01T08:01:26;95158.03;;;30.15;37.46
14393;BME280;7281;42.678;23.372;2022-07-01T08:03:53;95161.13;;;29.73;37.27
14393;BME280;7281;42.678;23.372;2022-07-01T08:06:20;95159.50;;;29.69;37.57
14393;BME280;7281;42.678;23.372;2022-07-01T08:08:47;95164.56;;;30.07;37.22
14393;BME280;7281;42.678;23.372;2022-07-01T08:11:14;95147.69;;;30.24;37.20
14393;BME280;7281;42.678;23.372;2022-07-01T08:13:41;95152.44;;;30.34;37.88
14393;BME280;7281;42.678;23.372;2022-07-01T08:16:08;95153.38;;;30.52;37.15
14393;BME280;7281;42.678;23.372;2022-07-01T08:18:35;95143.41;;;30.63;36.99
14393;BME280;7281;42.678;23.372;2022-07-01T08:21:03;95140.75;;;30.23;39.27
14393;BME280;7281;42.678;23.372;2022-07-01T08:23:30;95139.41;;;30.47;40.02
14393;BME280;7281;42.678;23.372;2022-07-01T08:25:57;95132.78;;;30.95;37.58
14393;BME280;7281;42.678;23.372;2022-07-01T08:28:24;95140.59;;;31.11;38.15
14393;BME280;7281;42.678;23.372;2022-07-01T08:30:51;95136.88;;;31.40;37.45
14393;BME280;7281;42.678;23.372;2022-07-01T08:33:17;95143.06;;;31.37;36.67
14393;BME280;7281;42.678;23.372;2022-07-01T08:35:44;95134.59;;;31.49;35.61
14393;BME280;7281;42.678;23.372;2022-07-01T08:38:11;95141.06;;;31.30;35.73
14393;BME280;7281;42.678;23.372;2022-07-01T08:40:38;95132.75;;;30.88;36.55
14393;BME280;7281;42.678;23.372;2022-07-01T08:43:06;95138.47;;;31.51;35.86
14393;BME280;7281;42.678;23.372;2022-07-01T08:45:35;95116.81;;;31.55;34.94
14393;BME280;7281;42.678;23.372;2022-07-01T08:48:06;95131.50;;;31.54;36.73
14393;BME280;7281;42.678;23.372;2022-07-01T08:50:38;95133.81;;;31.52;34.73
14393;BME280;7281;42.678;23.372;2022-07-01T08:53:06;95135.41;;;31.70;35.92
14393;BME280;7281;42.678;23.372;2022-07-01T08:55:33;95138.53;;;31.83;35.73
14393;BME280;7281;42.678;23.372;2022-07-01T08:58:21;95134.72;;;32.02;36.20
14393;BME280;7281;42.678;23.372;2022-07-01T09:00:48;95137.06;;;32.17;34.65
14393;BME280;7281;42.678;23.372;2022-07-01T09:03:20;95127.31;;;31.88;34.67
14393;BME280;7281;42.678;23.372;2022-07-01T09:05:51;95132.41;;;31.97;33.19
14393;BME280;7281;42.678;23.372;2022-07-01T09:08:19;95135.50;;;32.30;33.94
14393;BME280;7281;42.678;23.372;2022-07-01T09:10:46;95138.59;;;31.97;35.04
14393;BME280;7281;42.678;23.372;2022-07-01T09:13:13;95139.41;;;32.43;34.34
14393;BME280;7281;42.678;23.372;2022-07-01T09:15:40;95135.50;;;32.23;34.11
14393;BME280;7281;42.678;23.372;2022-07-01T09:18:14;95131.63;;;32.17;33.04
14393;BME280;7281;42.678;23.372;2022-07-01T09:20:44;95135.53;;;32.58;33.70
14393;BME280;7281;42.678;23.372;2022-07-01T09:23:16;95127.00;;;32.18;32.71
14393;BME280;7281;42.678;23.372;2022-07-01T09:25:46;95130.06;;;32.37;32.03
14393;BME280;7281;42.678;23.372;2022-07-01T09:28:22;95127.78;;;32.53;31.79
14393;BME280;7281;42.678;23.372;2022-07-01T09:30:53;95121.94;;;32.69;30.96
14393;BME280;7281;42.678;23.372;2022-07-01T09:33:25;95130.50;;;32.60;30.50
14393;BME280;7281;42.678;23.372;2022-07-01T09:35:53;95120.72;;;32.91;30.66
14393;BME280;7281;42.678;23.372;2022-07-01T09:38:22;95124.63;;;32.90;32.15
14393;BME280;7281;42.678;23.372;2022-07-01T09:41:03;95102.13;;;33.00;29.95
14393;BME280;7281;42.678;23.372;2022-07-01T09:43:33;95122.16;;;33.31;30.62
14393;BME280;7281;42.678;23.372;2022-07-01T09:46:10;95104.38;;;33.19;31.25
14393;BME280;7281;42.678;23.372;2022-07-01T09:51:05;95115.16;;;33.40;28.17
14393;BME280;7281;42.678;23.372;2022-07-01T09:53:40;95111.34;;;33.20;29.06
14393;BME280;7281;42.678;23.372;2022-07-01T09:56:07;95104.16;;;33.72;30.52
14393;BME280;7281;42.678;23.372;2022-07-01T09:58:34;95097.03;;;33.85;30.16
14393;BME280;7281;42.678;23.372;2022-07-01T10:01:04;95097.63;;;34.17;29.38
14393;BME280;7281;42.678;23.372;2022-07-01T10:03:37;95097.31;;;34.08;28.54
14393;BME280;7281;42.678;23.372;2022-07-01T10:09:33;95083.47;;;34.36;27.06
14393;BME280;7281;42.678;23.372;2022-07-01T10:12:21;95089.69;;;34.37;25.77
14393;BME280;7281;42.678;23.372;2022-07-01T10:14:53;95095.69;;;34.14;27.87
14393;BME280;7281;42.678;23.372;2022-07-01T10:17:28;95098.22;;;34.39;27.97
14393;BME280;7281;42.678;23.372;2022-07-01T10:19:56;95088.69;;;34.64;27.42
14393;BME280;7281;42.678;23.372;2022-07-01T10:22:28;95087.94;;;34.60;24.62
14393;BME280;7281;42.678;23.372;2022-07-01T10:24:56;95084.09;;;34.92;24.64
14393;BME280;7281;42.678;23.372;2022-07-01T10:27:42;95086.03;;;34.91;26.20
14393;BME280;7281;42.678;23.372;2022-07-01T10:30:14;95078.50;;;35.06;25.60
14393;BME280;7281;42.678;23.372;2022-07-01T10:32:49;95074.63;;;35.07;26.39
14393;BME280;7281;42.678;23.372;2022-07-01T10:35:36;95074.72;;;35.00;24.33
14393;BME280;7281;42.678;23.372;2022-07-01T10:38:11;95064.66;;;35.27;24.20
14393;BME280;7281;42.678;23.372;2022-07-01T10:40:45;95062.03;;;34.83;24.07
14393;BME280;7281;42.678;23.372;2022-07-01T10:43:33;95055.56;;;35.07;24.41
14393;BME280;7281;42.678;23.372;2022-07-01T10:46:01;95054.97;;;34.89;27.64
14393;BME280;7281;42.678;23.372;2022-07-01T10:48:31;95042.03;;;35.60;25.35
14393;BME280;7281;42.678;23.372;2022-07-01T10:50:59;95044.22;;;35.68;25.00
14393;BME280;7281;42.678;23.372;2022-07-01T10:53:45;95044.03;;;35.56;24.10
14393;BME280;7281;42.678;23.372;2022-07-01T10:56:37;95046.44;;;35.50;23.61
14393;BME280;7281;42.678;23.372;2022-07-01T10:59:04;95046.56;;;35.40;23.81
14393;BME280;7281;42.678;23.372;2022-07-01T11:01:31;95044.97;;;35.73;23.96
14393;BME280;7281;42.678;23.372;2022-07-01T11:03:59;95047.50;;;35.83;22.61
14393;BME280;7281;42.678;23.372;2022-07-01T11:06:26;95048.16;;;35.94;22.66
14393;BME280;7281;42.678;23.372;2022-07-01T11:08:53;95050.56;;;35.32;23.81
14393;BME280;7281;42.678;23.372;2022-07-01T11:11:20;95045.56;;;35.84;23.31
14393;BME280;7281;42.678;23.372;2022-07-01T11:13:49;95042.16;;;35.76;22.87
14393;BME280;7281;42.678;23.372;2022-07-01T11:16:15;95035.47;;;36.07;23.22
14393;BME280;7281;42.678;23.372;2022-07-01T11:18:43;95050.59;;;36.35;23.03
14393;BME280;7281;42.678;23.372;2022-07-01T11:21:10;95040.44;;;36.35;22.46
14393;BME280;7281;42.678;23.372;2022-07-01T11:23:38;95039.44;;;36.49;21.46
14393;BME280;7281;42.678;23.372;2022-07-01T11:26:22;95034.88;;;36.42;22.50
14393;BME280;7281;42.678;23.372;2022-07-01T11:28:49;95030.00;;;36.53;20.99
14393;BME280;7281;42.678;23.372;2022-07-01T11:31:26;95031.41;;;36.61;21.57
14393;BME280;7281;42.678;23.372;2022-07-01T11:33:54;95030.13;;;36.46;21.01
14393;BME280;7281;42.678;23.372;2022-07-01T11:36:21;95028.34;;;36.13;23.84
14393;BME280;7281;42.678;23.372;2022-07-01T11:39:07;95026.97;;;36.48;21.22
14393;BME280;7281;42.678;23.372;2022-07-01T11:41:56;95026.38;;;36.80;22.87
14393;BME280;7281;42.678;23.372;2022-07-01T11:44:37;95028.91;;;36.90;22.24
14393;BME280;7281;42.678;23.372;2022-07-01T11:47:07;95019.34;;;36.59;22.30
14393;BME280;7281;42.678;23.372;2022-07-01T11:49:45;95020.66;;;36.94;23.41
14393;BME280;7281;42.678;23.372;2022-07-01T11:52:14;95020.97;;;36.56;20.46
14393;BME280;7281;42.678;23.372;2022-07-01T11:54:44;95015.84;;;36.16;20.80
14393;BME280;7281;42.678;23.372;2022-07-01T11:57:14;95011.63;;;36.11;20.21
14393;BME280;7281;42.678;23.372;2022-07-01T11:59:44;95016.09;;;37.07;21.58
14393;BME280;7281;42.678;23.372;2022-07-01T12:02:13;95014.44;;;36.93;21.21
14393;BME280;7281;42.678;23.372;2022-07-01T12:04:42;95012.94;;;37.28;21.20
14393;BME280;7281;42.678;23.372;2022-07-01T12:07:10;94999.75;;;37.42;21.50
14393;BME280;7281;42.678;23.372;2022-07-01T12:09:38;95003.44;;;36.97;20.34
14393;BME280;7281;42.678;23.372;2022-07-01T12:12:06;95002.16;;;37.21;20.84
14393;BME280;7281;42.678;23.372;2022-07-01T12:14:35;94999.81;;;37.39;21.08
14393;BME280;7281;42.678;23.372;2022-07-01T12:17:04;94999.41;;;36.82;19.36
14393;BME280;7281;42.678;23.372;2022-07-01T12:19:43;94994.09;;;37.14;20.21
14393;BME280;7281;42.678;23.372;2022-07-01T12:22:18;94995.97;;;37.52;20.02
14393;BME280;7281;42.678;23.372;2022-07-01T12:24:50;94994.44;;;37.16;18.50
14393;BME280;7281;42.678;23.372;2022-07-01T12:27:20;94991.72;;;36.96;19.68
14393;BME280;7281;42.678;23.372;2022-07-01T12:32:22;94980.69;;;37.39;20.51
14393;BME280;7281;42.678;23.372;2022-07-01T12:34:55;94984.69;;;37.86;19.52
14393;BME280;7281;42.678;23.372;2022-07-01T12:37:31;94982.31;;;36.78;19.36
14393;BME280;7281;42.678;23.372;2022-07-01T12:40:06;94983.00;;;37.56;19.92
14393;BME280;7281;42.678;23.372;2022-07-01T12:42:36;94991.94;;;37.41;20.59
14393;BME280;7281;42.678;23.372;2022-07-01T12:45:10;94990.22;;;37.31;20.35
14393;BME280;7281;42.678;23.372;2022-07-01T12:47:40;94980.84;;;37.12;19.20
14393;BME280;7281;42.678;23.372;2022-07-01T12:52:38;94969.41;;;37.17;23.81
14393;BME280;7281;42.678;23.372;2022-07-01T12:55:26;94994.75;;;37.02;23.94
14393;BME280;7281;42.678;23.372;2022-07-01T12:57:55;94980.97;;;37.25;25.04
14393;BME280;7281;42.678;23.372;2022-07-01T13:00:23;94988.00;;;36.47;25.33
14393;BME280;7281;42.678;23.372;2022-07-01T13:02:54;94997.72;;;36.48;25.48
14393;BME280;7281;42.678;23.372;2022-07-01T13:05:22;94985.69;;;36.46;25.43
14393;BME280;7281;42.678;23.372;2022-07-01T13:07:50;94987.59;;;36.69;25.30
14393;BME280;7281;42.678;23.372;2022-07-01T13:10:18;94988.72;;;37.30;25.09
14393;BME280;7281;42.678;23.372;2022-07-01T13:12:45;94990.41;;;36.85;23.87
14393;BME280;7281;42.678;23.372;2022-07-01T13:15:14;94979.03;;;37.06;24.05
14393;BME280;7281;42.678;23.372;2022-07-01T13:17:42;94979.59;;;37.17;24.21
14393;BME280;7281;42.678;23.372;2022-07-01T13:20:09;94989.38;;;37.34;23.69
14393;BME280;7281;42.678;23.372;2022-07-01T13:22:37;94983.63;;;37.64;23.81
14393;BME280;7281;42.678;23.372;2022-07-01T13:25:04;94978.03;;;37.16;22.97